Time;durP1;ratioP1;P1;durP2;ratioP2;P2;SDS_P1;SDS_P2;PMS_P1;PMS_P2;Temp;Humidity;BMP_temperature;BMP_pressure;BME280_temperature;BME280_humidity;BME280_pressure;Samples;Min_cycle;Max_cycle;Signal;HPM_P1;HPM_P2
2021/07/24 17:33:41;;;;;;;0.00;0.00;;;25.40;82.60;;;;;;5278366;23;20056;-76
2021/07/24 17:36:09;;;;;;;0.00;0.00;;;25.30;82.80;;;;;;4860742;29;20446;-76
2021/07/24 17:38:36;;;;;;;3.50;1.65;;;25.20;83.80;;;;;;4860796;29;20067;-75
2021/07/24 17:41:22;;;;;;;0.00;0.00;;;25.20;83.60;;;;;;4860893;29;20028;-76
2021/07/24 17:43:48;;;;;;;0.82;0.82;;;25.20;84.90;;;;;;4861712;29;20038;-76
2021/07/24 17:46:14;;;;;;;6.53;1.25;;;25.30;90.30;;;;;;4874188;23;20057;-77
2021/07/24 17:48:40;;;;;;;0.00;0.00;;;25.30;91.80;;;;;;4861731;29;20032;-76
2021/07/24 17:51:10;;;;;;;0.10;0.10;;;25.30;93.90;;;;;;4861958;29;20037;-78
2021/07/24 17:53:37;;;;;;;0.08;0.08;;;25.30;95.10;;;;;;4860517;29;20025;-77
2021/07/24 17:56:03;;;;;;;0.00;0.00;;;25.20;98.00;;;;;;4861946;29;20039;-77
2021/07/24 17:58:29;;;;;;;0.03;0.03;;;25.10;99.90;;;;;;4860344;29;20030;-77
2021/07/24 18:00:55;;;;;;;0.63;0.63;;;24.90;99.90;;;;;;4861566;29;20443;-77
2021/07/24 18:03:21;;;;;;;0.10;0.10;;;24.80;99.90;;;;;;4860456;29;20022;-77
2021/07/24 18:05:50;;;;;;;0.05;0.05;;;24.70;99.90;;;;;;4845017;29;20026;-77
2021/07/24 18:08:16;;;;;;;1.15;1.00;;;24.40;99.90;;;;;;4861533;29;20052;-77
2021/07/24 18:10:42;;;;;;;17.10;5.55;;;24.00;99.90;;;;;;4860374;29;20482;-76
2021/07/24 18:13:08;;;;;;;5.55;4.88;;;23.60;99.90;;;;;;4861288;29;20025;-76
2021/07/24 18:15:34;;;;;;;3.97;2.53;;;23.10;99.90;;;;;;4861544;29;20042;-76
2021/07/24 18:18:00;;;;;;;7.68;5.28;;;22.70;99.90;;;;;;4860171;29;20037;-76
2021/07/24 18:20:26;;;;;;;9.98;5.05;;;21.80;99.90;;;;;;4861439;29;20458;-77
2021/07/24 18:22:53;;;;;;;10.00;3.63;;;20.60;99.90;;;;;;4859784;29;20082;-76
2021/07/24 18:25:19;;;;;;;5.35;2.63;;;19.80;99.90;;;;;;4861496;29;20033;-76
2021/07/24 18:27:45;;;;;;;8.05;2.13;;;19.30;99.90;;;;;;4861073;29;20057;-78
2021/07/24 18:30:12;;;;;;;8.48;2.55;;;18.90;99.90;;;;;;4861018;29;20430;-77
2021/07/24 18:32:39;;;;;;;5.32;1.13;;;18.80;99.90;;;;;;4859797;29;20026;-77
2021/07/24 18:35:05;;;;;;;0.60;0.60;;;18.90;99.90;;;;;;4859640;29;20029;-77
2021/07/24 18:37:32;;;;;;;0.10;0.10;;;18.70;99.90;;;;;;4860990;29;20447;-77
2021/07/24 18:39:59;;;;;;;0.30;0.30;;;18.90;99.90;;;;;;4860534;29;20458;-77
2021/07/24 18:42:25;;;;;;;0.75;0.08;;;18.90;99.90;;;;;;4871580;29;20021;-77
2021/07/24 18:44:51;;;;;;;0.17;0.17;;;18.70;99.90;;;;;;4871028;29;20029;-76
2021/07/24 18:47:17;;;;;;;0.10;0.10;;;18.80;99.90;;;;;;4859065;29;20482;-77
2021/07/24 18:49:43;;;;;;;0.10;0.10;;;18.80;99.90;;;;;;4861595;29;20068;-77
2021/07/24 18:52:09;;;;;;;0.30;0.30;;;19.10;99.90;;;;;;4844059;29;20446;-77
2021/07/24 18:54:34;;;;;;;6.18;0.50;;;19.20;99.90;;;;;;4859540;29;20030;-77
2021/07/24 18:57:01;;;;;;;0.10;0.10;;;19.40;99.90;;;;;;4860586;29;20030;-77
2021/07/24 18:59:27;;;;;;;0.10;0.10;;;19.30;99.90;;;;;;4865440;29;20104;-76
2021/07/24 19:01:54;;;;;;;0.45;0.22;;;19.20;99.90;;;;;;4846123;29;20025;-77
2021/07/24 19:04:20;;;;;;;0.10;0.10;;;19.00;99.90;;;;;;4858767;29;20066;-79
2021/07/24 19:06:45;;;;;;;0.10;0.10;;;18.90;99.90;;;;;;4861539;29;20431;-76
2021/07/24 19:09:11;;;;;;;1.17;1.05;;;18.90;99.90;;;;;;4843722;29;20585;-76
2021/07/24 19:11:37;;;;;;;0.10;0.10;;;18.50;99.90;;;;;;4860055;29;20022;-77
2021/07/24 19:14:03;;;;;;;0.10;0.10;;;18.20;99.90;;;;;;4842812;29;20401;-76
2021/07/24 19:16:29;;;;;;;0.20;0.20;;;18.20;99.90;;;;;;4864333;29;20066;-77
2021/07/24 19:18:54;;;;;;;1.25;0.43;;;18.00;99.90;;;;;;4868222;29;20029;-77
2021/07/24 19:21:25;;;;;;;1.38;0.88;;;17.90;99.90;;;;;;4861910;29;20435;-77
2021/07/24 19:23:52;;;;;;;0.82;0.75;;;17.60;99.90;;;;;;4877174;29;20025;-76
2021/07/24 19:26:21;;;;;;;0.90;0.73;;;17.50;99.90;;;;;;4870261;29;20385;-76
2021/07/24 19:28:47;;;;;;;2.10;1.65;;;17.40;99.90;;;;;;4859884;29;20062;-76
2021/07/24 19:31:13;;;;;;;0.00;0.00;;;17.40;99.90;;;;;;4864100;29;20086;-77
2021/07/24 19:33:39;;;;;;;4.22;3.35;;;17.70;99.90;;;;;;4878456;29;20062;-77
2021/07/24 19:36:06;;;;;;;0.10;0.10;;;17.80;99.90;;;;;;4868387;29;20033;-77
2021/07/24 19:38:33;;;;;;;0.08;0.08;;;17.90;99.90;;;;;;4875896;29;20044;-77
2021/07/24 19:40:59;;;;;;;0.08;0.08;;;18.00;99.90;;;;;;4859938;29;20027;-77
2021/07/24 19:43:25;;;;;;;0.52;0.28;;;18.10;99.90;;;;;;4860228;29;20021;-79
2021/07/24 19:45:51;;;;;;;0.10;0.10;;;18.30;99.90;;;;;;4880508;29;20030;-77
2021/07/24 19:48:16;;;;;;;3.60;0.43;;;18.30;99.90;;;;;;4859178;29;20041;-79
2021/07/24 19:50:42;;;;;;;0.10;0.10;;;18.50;99.90;;;;;;4842722;29;20124;-76
2021/07/24 19:53:08;;;;;;;0.22;0.13;;;18.20;99.90;;;;;;4858479;29;20033;-77
2021/07/24 19:55:36;;;;;;;1.10;0.70;;;18.30;99.90;;;;;;4842850;29;20025;-77
2021/07/24 19:58:04;;;;;;;0.47;0.32;;;18.10;99.90;;;;;;4859385;29;20112;-77
2021/07/24 20:00:33;;;;;;;0.10;0.10;;;17.90;99.90;;;;;;4859363;29;20143;-77
2021/07/24 20:02:59;;;;;;;0.10;0.10;;;17.70;99.90;;;;;;4858976;29;20026;-79
2021/07/24 20:05:25;;;;;;;0.47;0.45;;;17.60;99.90;;;;;;4859382;29;20117;-79
2021/07/24 20:07:52;;;;;;;0.10;0.10;;;17.70;99.90;;;;;;4858628;29;20432;-77
2021/07/24 20:10:17;;;;;;;0.10;0.10;;;17.80;99.90;;;;;;4876856;29;20025;-76
2021/07/24 20:12:43;;;;;;;8.32;1.20;;;17.80;99.90;;;;;;4877922;29;20523;-78
2021/07/24 20:15:09;;;;;;;0.10;0.10;;;17.80;99.90;;;;;;4878189;29;20056;-77
2021/07/24 20:17:35;;;;;;;0.32;0.32;;;17.70;99.90;;;;;;4878065;29;20450;-77
2021/07/24 20:20:01;;;;;;;0.10;0.10;;;17.90;99.90;;;;;;4878105;29;20028;-77
2021/07/24 20:22:26;;;;;;;0.25;0.25;;;17.90;99.90;;;;;;4876827;29;20021;-77
2021/07/24 20:24:52;;;;;;;0.10;0.10;;;17.80;99.90;;;;;;4876545;29;20493;-76
2021/07/24 20:27:18;;;;;;;0.15;0.15;;;17.90;99.90;;;;;;4861376;29;20032;-77
2021/07/24 20:29:44;;;;;;;0.10;0.10;;;17.80;99.90;;;;;;4875932;29;20022;-77
2021/07/24 20:32:09;;;;;;;0.30;0.30;;;17.90;99.90;;;;;;4874552;29;20153;-77
2021/07/24 20:34:35;;;;;;;0.10;0.10;;;18.00;99.90;;;;;;4877925;29;20037;-77
2021/07/24 20:37:01;;;;;;;0.10;0.10;;;18.10;99.90;;;;;;4877886;29;20032;-77
2021/07/24 20:39:27;;;;;;;1.30;1.23;;;18.20;99.90;;;;;;4877826;29;20044;-77
2021/07/24 20:41:53;;;;;;;0.50;0.35;;;18.40;99.90;;;;;;4876549;29;20108;-76
2021/07/24 20:44:18;;;;;;;0.00;0.00;;;18.20;99.90;;;;;;4876613;29;20483;-76
2021/07/24 20:46:44;;;;;;;0.20;0.20;;;17.90;99.90;;;;;;4876695;29;20517;-77
2021/07/24 20:49:10;;;;;;;1.10;0.70;;;18.00;99.90;;;;;;4877694;29;20036;-78
2021/07/24 20:51:37;;;;;;;0.13;0.13;;;18.00;99.90;;;;;;4858723;29;20086;-78
2021/07/24 20:54:06;;;;;;;2.50;0.68;;;18.10;99.90;;;;;;4859234;29;20034;-77
2021/07/24 20:56:32;;;;;;;0.10;0.10;;;17.90;99.90;;;;;;4858158;29;20048;-77
2021/07/24 20:59:01;;;;;;;0.10;0.10;;;17.90;99.90;;;;;;4861289;29;20030;-77
2021/07/24 21:01:27;;;;;;;0.10;0.10;;;17.90;99.90;;;;;;4862407;29;20494;-77
2021/07/24 21:03:53;;;;;;;0.00;0.00;;;18.00;99.90;;;;;;4846033;29;20097;-77
2021/07/24 21:06:23;;;;;;;0.10;0.10;;;18.20;99.90;;;;;;4862753;29;20022;-76
2021/07/24 21:08:50;;;;;;;0.10;0.10;;;18.30;99.90;;;;;;4862598;29;20030;-77
2021/07/24 21:11:16;;;;;;;0.10;0.10;;;18.60;99.90;;;;;;4861336;29;20029;-76
2021/07/24 21:13:42;;;;;;;0.10;0.10;;;18.60;99.90;;;;;;4861383;29;20120;-77
2021/07/24 21:16:14;;;;;;;0.20;0.20;;;18.60;99.90;;;;;;4861182;29;20048;-76
2021/07/24 21:18:40;;;;;;;0.10;0.10;;;18.50;99.90;;;;;;4862605;29;20025;-77
2021/07/24 21:21:09;;;;;;;0.10;0.10;;;18.60;99.90;;;;;;4861182;29;20450;-76
2021/07/24 21:23:35;;;;;;;0.10;0.10;;;18.70;99.90;;;;;;4862408;29;20026;-77
2021/07/24 21:26:00;;;;;;;0.10;0.10;;;18.90;99.90;;;;;;4861037;29;20394;-78
2021/07/24 21:28:26;;;;;;;0.32;0.22;;;18.80;99.90;;;;;;4862366;29;20030;-77
2021/07/24 21:30:52;;;;;;;0.10;0.10;;;18.80;99.90;;;;;;4861132;29;20494;-77
2021/07/24 21:33:19;;;;;;;0.43;0.43;;;18.80;99.90;;;;;;4861073;29;20034;-77
2021/07/24 21:35:44;;;;;;;0.10;0.10;;;18.80;99.90;;;;;;4861241;29;20413;-77
2021/07/24 21:38:10;;;;;;;0.10;0.10;;;18.80;99.90;;;;;;4862291;29;20026;-76
2021/07/24 21:40:37;;;;;;;1.55;0.85;;;18.60;99.90;;;;;;4861002;29;20034;-77
2021/07/24 21:43:03;;;;;;;0.10;0.10;;;18.60;99.90;;;;;;4862003;29;20029;-78
2021/07/24 21:45:29;;;;;;;0.45;0.45;;;18.50;99.90;;;;;;4860862;29;20028;-75
2021/07/24 21:47:54;;;;;;;0.40;0.40;;;18.40;99.90;;;;;;4860913;29;20037;-77
2021/07/24 21:50:20;;;;;;;0.20;0.20;;;18.40;99.90;;;;;;4860871;29;20033;-77
2021/07/24 21:52:46;;;;;;;3.13;0.90;;;18.20;99.90;;;;;;4860481;29;20033;-76
2021/07/24 21:55:15;;;;;;;0.17;0.17;;;18.00;99.90;;;;;;4860646;29;20034;-77
2021/07/24 21:57:41;;;;;;;0.15;0.15;;;17.80;99.90;;;;;;4862013;29;20478;-77
2021/07/24 22:00:17;;;;;;;1.67;0.60;;;17.70;99.90;;;;;;4860608;29;20033;-76
2021/07/24 22:02:45;;;;;;;0.15;0.15;;;17.60;99.90;;;;;;4860452;29;20025;-77
2021/07/24 22:05:11;;;;;;;2.00;1.33;;;17.50;99.90;;;;;;4860485;29;20021;-76
2021/07/24 22:07:37;;;;;;;2.45;2.00;;;17.40;99.90;;;;;;4860571;29;20443;-77
2021/07/24 22:10:03;;;;;;;0.10;0.10;;;17.50;99.90;;;;;;4844429;29;20087;-76
2021/07/24 22:12:29;;;;;;;1.25;1.08;;;17.70;99.90;;;;;;4861616;29;20378;-76
2021/07/24 22:14:54;;;;;;;0.28;0.28;;;17.70;99.90;;;;;;4860175;29;20030;-76
2021/07/24 22:17:20;;;;;;;0.10;0.10;;;17.70;99.90;;;;;;4860214;29;20186;-76
2021/07/24 22:19:49;;;;;;;0.52;0.52;;;17.70;99.90;;;;;;4861425;29;20033;-77
2021/07/24 22:22:16;;;;;;;0.10;0.10;;;17.70;99.90;;;;;;4859961;29;20058;-76
2021/07/24 22:24:42;;;;;;;0.10;0.10;;;17.70;99.90;;;;;;4861347;29;20030;-76
2021/07/24 22:27:11;;;;;;;1.80;0.30;;;17.80;99.90;;;;;;4861395;29;20034;-75
2021/07/24 22:29:37;;;;;;;0.65;0.50;;;17.70;99.90;;;;;;4861524;29;20108;-76
2021/07/24 22:32:03;;;;;;;0.10;0.10;;;17.70;99.90;;;;;;4860994;29;20161;-76
2021/07/24 22:34:29;;;;;;;1.60;0.75;;;17.60;99.90;;;;;;4861205;29;20037;-76
2021/07/24 22:36:55;;;;;;;2.28;1.10;;;17.50;99.90;;;;;;4861120;29;20037;-75
2021/07/24 22:39:21;;;;;;;3.42;1.45;;;17.50;99.90;;;;;;4860843;29;20085;-76
2021/07/24 22:41:47;;;;;;;1.52;0.73;;;17.50;99.90;;;;;;4860804;29;20394;-76
2021/07/24 22:44:13;;;;;;;0.60;0.52;;;17.60;99.90;;;;;;4861003;29;20049;-76
2021/07/24 22:46:46;;;;;;;3.20;1.08;;;17.60;99.90;;;;;;4860886;29;20033;-76
2021/07/24 22:49:13;;;;;;;0.50;0.50;;;17.50;99.90;;;;;;4859590;29;20033;-76
2021/07/24 22:51:39;;;;;;;4.95;2.08;;;17.50;99.90;;;;;;4861177;29;20029;-76
2021/07/24 22:54:05;;;;;;;0.20;0.20;;;17.50;99.90;;;;;;4860635;29;20030;-76
2021/07/24 22:56:31;;;;;;;12.20;10.68;;;17.50;99.90;;;;;;4860816;29;20032;-76
2021/07/24 22:58:57;;;;;;;0.52;0.50;;;17.50;99.90;;;;;;4860591;29;20394;-76
2021/07/24 23:01:23;;;;;;;1.27;0.70;;;17.40;99.90;;;;;;4859316;29;20041;-76
2021/07/24 23:03:48;;;;;;;1.55;0.63;;;17.40;99.90;;;;;;4844129;29;20501;-75
2021/07/24 23:06:14;;;;;;;3.35;1.30;;;17.40;99.90;;;;;;4859418;29;20284;-75
2021/07/24 23:08:40;;;;;;;0.68;0.65;;;17.40;99.90;;;;;;4859351;29;20033;-75
2021/07/24 23:11:06;;;;;;;0.15;0.15;;;17.40;99.90;;;;;;4860506;29;20398;-78
2021/07/24 23:13:31;;;;;;;0.40;0.40;;;17.50;99.90;;;;;;4859260;29;20026;-76
2021/07/24 23:15:58;;;;;;;1.25;0.22;;;17.70;99.90;;;;;;4860350;29;20161;-77
2021/07/24 23:18:23;;;;;;;0.35;0.22;;;17.70;99.90;;;;;;4860461;29;20391;-76
2021/07/24 23:20:49;;;;;;;0.40;0.40;;;17.70;99.90;;;;;;4860240;29;20033;-75
2021/07/24 23:23:15;;;;;;;3.33;0.38;;;17.80;99.90;;;;;;4858276;29;20034;-76
2021/07/24 23:25:41;;;;;;;0.00;0.00;;;17.60;99.90;;;;;;4843826;29;20259;-76
2021/07/24 23:28:07;;;;;;;1.38;0.75;;;17.60;99.90;;;;;;4860323;29;20036;-76
2021/07/24 23:30:33;;;;;;;0.10;0.10;;;17.50;99.90;;;;;;4843713;29;20082;-75
2021/07/24 23:32:59;;;;;;;0.20;0.20;;;17.40;99.90;;;;;;4843550;29;20379;-75
2021/07/24 23:35:25;;;;;;;0.52;0.50;;;17.50;99.90;;;;;;4843683;29;20420;-75
2021/07/24 23:37:50;;;;;;;2.30;1.05;;;17.60;99.90;;;;;;4843462;29;20508;-76
2021/07/24 23:40:16;;;;;;;0.10;0.10;;;17.50;99.90;;;;;;4860218;29;20108;-76
2021/07/24 23:42:43;;;;;;;0.00;0.00;;;17.60;99.90;;;;;;4859969;29;20021;-76
2021/07/24 23:45:10;;;;;;;0.10;0.10;;;17.70;99.90;;;;;;4843546;29;20029;-75
2021/07/24 23:47:36;;;;;;;0.30;0.30;;;17.80;99.90;;;;;;4858793;29;20042;-76
2021/07/24 23:50:07;;;;;;;0.75;0.75;;;17.80;99.90;;;;;;4860040;29;20045;-76
2021/07/24 23:52:33;;;;;;;0.40;0.40;;;17.70;99.90;;;;;;4859859;29;20478;-76
2021/07/24 23:54:59;;;;;;;8.32;1.38;;;17.80;99.90;;;;;;4858961;29;20033;-76
2021/07/24 23:57:25;;;;;;;0.10;0.10;;;17.90;99.90;;;;;;4859973;29;20037;-76
2021/07/24 23:59:51;;;;;;;0.10;0.10;;;18.00;99.90;;;;;;4858728;29;20097;-76
